Time;durP1;ratioP1;P1;durP2;ratioP2;P2;SDS_P1;SDS_P2;PMS_P1;PMS_P2;Temp;Humidity;BMP_temperature;BMP_pressure;BME280_temperature;BME280_humidity;BME280_pressure;Samples;Min_cycle;Max_cycle;Signal;HPM_P1;HPM_P2
2022/11/20 00:00:52;;;;;;;3.75;1.73;;;;;;;;;;4998450;28;20503;-46
2022/11/20 00:03:17;;;;;;;5.03;1.67;;;;;;;;;;4998359;28;20038;-49
2022/11/20 00:05:43;;;;;;;2.28;1.52;;;;;;;;;;4999379;28;20069;-47
2022/11/20 00:08:09;;;;;;;1.98;1.42;;;;;;;;;;5000701;28;20038;-45
2022/11/20 00:10:39;;;;;;;4.43;1.55;;;;;;;;;;5002175;28;20085;-45
2022/11/20 00:13:04;;;;;;;6.82;2.05;;;;;;;;;;5004785;28;20037;-47
2022/11/20 00:15:30;;;;;;;3.00;1.42;;;;;;;;;;4998997;28;20048;-48
2022/11/20 00:17:56;;;;;;;2.67;1.30;;;;;;;;;;5001209;28;20106;-50
2022/11/20 00:20:21;;;;;;;4.07;1.38;;;;;;;;;;5004630;28;20069;-45
2022/11/20 00:22:47;;;;;;;1.52;1.35;;;;;;;;;;4993817;28;20033;-49
2022/11/20 00:25:12;;;;;;;3.70;1.38;;;;;;;;;;5006336;28;20482;-45
2022/11/20 00:27:38;;;;;;;2.63;1.40;;;;;;;;;;4996070;28;20034;-46
2022/11/20 00:30:04;;;;;;;4.95;1.67;;;;;;;;;;4999723;28;20121;-49
2022/11/20 00:32:30;;;;;;;3.63;1.63;;;;;;;;;;5005084;28;20058;-51
2022/11/20 00:34:55;;;;;;;2.28;1.40;;;;;;;;;;5003640;28;20070;-45
2022/11/20 00:37:21;;;;;;;3.90;1.67;;;;;;;;;;4995141;28;20030;-48
2022/11/20 00:39:46;;;;;;;5.10;1.40;;;;;;;;;;4994079;28;20034;-49
2022/11/20 00:42:11;;;;;;;2.42;1.42;;;;;;;;;;4996876;28;20125;-49
2022/11/20 00:44:37;;;;;;;1.75;1.40;;;;;;;;;;4997932;28;20555;-48
2022/11/20 00:47:02;;;;;;;3.92;1.70;;;;;;;;;;4999506;28;20108;-46
2022/11/20 00:49:27;;;;;;;3.53;1.60;;;;;;;;;;5002122;28;20043;-50
2022/11/20 00:51:53;;;;;;;2.13;1.40;;;;;;;;;;4993352;28;20164;-49
2022/11/20 00:54:18;;;;;;;4.88;1.95;;;;;;;;;;5004735;28;20046;-50
2022/11/20 00:56:43;;;;;;;4.38;1.95;;;;;;;;;;5000952;28;20382;-46
2022/11/20 00:59:10;;;;;;;4.82;2.08;;;;;;;;;;5000990;28;20045;-44
2022/11/20 01:01:37;;;;;;;3.17;1.73;;;;;;;;;;4996947;28;20031;-47
2022/11/20 01:04:02;;;;;;;3.97;1.88;;;;;;;;;;4997955;28;20050;-43
2022/11/20 01:06:36;;;;;;;3.60;1.75;;;;;;;;;;4996907;28;20030;-44
2022/11/20 01:09:07;;;;;;;4.07;1.73;;;;;;;;;;4999846;28;20129;-45
2022/11/20 01:11:36;;;;;;;2.63;1.40;;;;;;;;;;4999897;28;20039;-46
2022/11/20 01:14:05;;;;;;;3.30;1.67;;;;;;;;;;5001896;28;20061;-43
2022/11/20 01:16:33;;;;;;;2.55;1.50;;;;;;;;;;5001324;28;20479;-44
2022/11/20 01:19:01;;;;;;;2.63;1.70;;;;;;;;;;5001454;28;20058;-46
2022/11/20 01:21:30;;;;;;;2.25;1.65;;;;;;;;;;5003486;28;20044;-44
2022/11/20 01:23:56;;;;;;;1.77;1.20;;;;;;;;;;5003036;28;20406;-46
2022/11/20 01:26:24;;;;;;;2.05;1.63;;;;;;;;;;4995165;28;20022;-45
2022/11/20 01:28:50;;;;;;;6.60;1.67;;;;;;;;;;5010018;28;20038;-43
2022/11/20 01:31:27;;;;;;;1.92;1.55;;;;;;;;;;5002762;28;20021;-43
2022/11/20 01:33:56;;;;;;;4.35;1.23;;;;;;;;;;5004029;28;20042;-43
2022/11/20 01:36:23;;;;;;;2.63;1.27;;;;;;;;;;5000151;28;20034;-43
2022/11/20 01:38:52;;;;;;;2.47;1.35;;;;;;;;;;5002160;28;20034;-42
2022/11/20 01:44:02;;;;;;;3.42;1.83;;;;;;;;;;5001434;28;20061;-44
2022/11/20 01:46:28;;;;;;;1.17;1.08;;;;;;;;;;5003021;28;20045;-43
2022/11/20 01:49:05;;;;;;;3.33;1.40;;;;;;;;;;5007678;28;20447;-44
2022/11/20 01:51:40;;;;;;;1.98;1.20;;;;;;;;;;4999986;28;20029;-42
2022/11/20 01:54:11;;;;;;;1.38;1.27;;;;;;;;;;4998395;28;20129;-43
2022/11/20 01:56:39;;;;;;;1.67;1.42;;;;;;;;;;4999655;28;20105;-43
2022/11/20 01:59:08;;;;;;;2.72;1.20;;;;;;;;;;4999307;28;20044;-46
2022/11/20 02:01:34;;;;;;;4.13;1.70;;;;;;;;;;4999966;28;20034;-45
2022/11/20 02:04:00;;;;;;;2.63;1.60;;;;;;;;;;4998506;28;20570;-45
2022/11/20 02:06:31;;;;;;;4.75;2.38;;;;;;;;;;5004018;28;20088;-43
2022/11/20 02:08:56;;;;;;;4.95;1.48;;;;;;;;;;5005993;28;20053;-44
2022/11/20 02:11:22;;;;;;;2.50;1.50;;;;;;;;;;5003988;28;20029;-43
2022/11/20 02:13:48;;;;;;;1.48;1.38;;;;;;;;;;4997582;28;20029;-45
2022/11/20 02:16:28;;;;;;;3.78;1.48;;;;;;;;;;5003558;28;20151;-43
2022/11/20 02:18:55;;;;;;;6.95;1.30;;;;;;;;;;5006730;28;20049;-44
2022/11/20 02:21:34;;;;;;;1.92;1.20;;;;;;;;;;5000570;28;20031;-43
2022/11/20 02:24:08;;;;;;;2.95;1.40;;;;;;;;;;5000056;28;20045;-43
2022/11/20 02:26:40;;;;;;;2.08;1.48;;;;;;;;;;5008997;28;20034;-45
2022/11/20 02:29:06;;;;;;;3.35;1.40;;;;;;;;;;5001075;28;20044;-43
2022/11/20 02:31:37;;;;;;;4.53;1.60;;;;;;;;;;5000704;28;20029;-43
2022/11/20 02:34:03;;;;;;;3.90;1.70;;;;;;;;;;4999677;28;20097;-45
2022/11/20 02:36:30;;;;;;;1.95;1.40;;;;;;;;;;4996789;28;20449;-43
2022/11/20 02:38:56;;;;;;;3.20;1.42;;;;;;;;;;5001252;28;20045;-43
2022/11/20 02:41:22;;;;;;;1.60;1.20;;;;;;;;;;4998470;28;20394;-43
2022/11/20 02:43:47;;;;;;;1.58;1.25;;;;;;;;;;5003453;28;20037;-45
2022/11/20 02:46:12;;;;;;;2.78;1.38;;;;;;;;;;4999371;28;20037;-45
2022/11/20 02:48:38;;;;;;;5.22;1.70;;;;;;;;;;5003828;28;20029;-43
2022/11/20 02:51:03;;;;;;;2.63;1.70;;;;;;;;;;5000507;28;20033;-44
2022/11/20 02:53:29;;;;;;;2.33;1.08;;;;;;;;;;5007052;28;20455;-43
2022/11/20 02:55:54;;;;;;;2.95;1.20;;;;;;;;;;5003854;28;20046;-45
2022/11/20 02:58:19;;;;;;;3.25;1.73;;;;;;;;;;5002550;28;20478;-43
2022/11/20 03:00:45;;;;;;;2.42;1.35;;;;;;;;;;5000877;28;20069;-42
2022/11/20 03:03:10;;;;;;;4.80;1.60;;;;;;;;;;4999686;28;20030;-43
2022/11/20 03:05:35;;;;;;;2.42;1.25;;;;;;;;;;4996187;28;20487;-46
2022/11/20 03:08:01;;;;;;;1.23;1.13;;;;;;;;;;4997104;28;20200;-44
2022/11/20 03:10:26;;;;;;;1.17;1.08;;;;;;;;;;5003609;28;20061;-43
2022/11/20 03:12:55;;;;;;;1.88;1.73;;;;;;;;;;5005217;28;20438;-43
2022/11/20 03:15:25;;;;;;;2.45;1.27;;;;;;;;;;4998835;28;20041;-46
2022/11/20 03:17:54;;;;;;;3.20;1.35;;;;;;;;;;5002397;28;20033;-45
2022/11/20 03:20:20;;;;;;;2.38;1.63;;;;;;;;;;4996927;28;20049;-42
2022/11/20 03:22:45;;;;;;;2.45;1.70;;;;;;;;;;5008631;28;20030;-43
2022/11/20 03:25:10;;;;;;;1.58;1.25;;;;;;;;;;5008217;28;20034;-46
2022/11/20 03:27:36;;;;;;;3.20;1.20;;;;;;;;;;4999530;28;20018;-44
2022/11/20 03:30:01;;;;;;;1.40;1.13;;;;;;;;;;4997899;28;20046;-45
2022/11/20 03:32:27;;;;;;;1.52;1.40;;;;;;;;;;5002783;28;20380;-45
2022/11/20 03:34:52;;;;;;;1.30;1.20;;;;;;;;;;4995239;28;20084;-45
2022/11/20 03:37:17;;;;;;;1.88;1.20;;;;;;;;;;4996508;28;20029;-43
2022/11/20 03:39:43;;;;;;;1.35;1.10;;;;;;;;;;5000604;28;20560;-44
2022/11/20 03:42:44;;;;;;;3.83;1.50;;;;;;;;;;5006091;28;20034;-46
2022/11/20 03:44:54;;;;;;;2.40;1.23;;;;;;;;;;5000753;28;20173;-42
2022/11/20 03:47:19;;;;;;;1.80;1.00;;;;;;;;;;5001626;28;20535;-43
2022/11/20 03:49:45;;;;;;;1.05;1.05;;;;;;;;;;4998520;28;20046;-42
2022/11/20 03:52:10;;;;;;;1.40;1.30;;;;;;;;;;5000320;28;20434;-45
2022/11/20 03:54:35;;;;;;;4.03;1.38;;;;;;;;;;5004819;28;20042;-42
2022/11/20 03:57:01;;;;;;;2.10;1.23;;;;;;;;;;5000219;28;20426;-47
2022/11/20 03:59:26;;;;;;;2.10;1.38;;;;;;;;;;5009514;28;20124;-46
2022/11/20 04:01:51;;;;;;;2.70;1.33;;;;;;;;;;4992543;28;20026;-43
2022/11/20 04:04:17;;;;;;;1.73;1.13;;;;;;;;;;4997748;28;20373;-44
2022/11/20 04:06:42;;;;;;;1.73;1.40;;;;;;;;;;5001902;28;20021;-44
2022/11/20 04:09:07;;;;;;;1.35;1.20;;;;;;;;;;5007443;28;20046;-44
2022/11/20 04:11:35;;;;;;;1.45;1.35;;;;;;;;;;4998089;28;20041;-43
2022/11/20 04:14:05;;;;;;;1.40;1.23;;;;;;;;;;4999957;28;20050;-46
2022/11/20 04:16:33;;;;;;;3.78;1.48;;;;;;;;;;4996546;28;20026;-43
2022/11/20 04:19:00;;;;;;;2.17;1.38;;;;;;;;;;4999856;28;20137;-46
2022/11/20 04:21:26;;;;;;;1.10;1.05;;;;;;;;;;5002561;28;20500;-44
2022/11/20 04:23:53;;;;;;;1.23;1.13;;;;;;;;;;4995156;28;20466;-44
2022/11/20 04:26:19;;;;;;;2.53;1.38;;;;;;;;;;4998835;28;20081;-45
2022/11/20 04:28:45;;;;;;;2.33;1.20;;;;;;;;;;4997951;28;20030;-43
2022/11/20 04:31:13;;;;;;;2.17;1.33;;;;;;;;;;4995777;28;20425;-42
2022/11/20 04:33:39;;;;;;;3.55;1.70;;;;;;;;;;5002702;28;20050;-45
2022/11/20 04:36:15;;;;;;;2.63;1.58;;;;;;;;;;4997278;28;20046;-44
2022/11/20 04:38:41;;;;;;;1.45;1.23;;;;;;;;;;5000522;28;20030;-44
2022/11/20 04:41:09;;;;;;;3.08;1.45;;;;;;;;;;5002189;28;20030;-43
2022/11/20 04:43:35;;;;;;;2.20;1.38;;;;;;;;;;5000518;28;20045;-45
2022/11/20 04:46:01;;;;;;;3.58;2.15;;;;;;;;;;4995023;28;20034;-45
2022/11/20 04:48:28;;;;;;;3.15;1.30;;;;;;;;;;5007733;28;20581;-44
2022/11/20 04:50:53;;;;;;;2.03;1.30;;;;;;;;;;5000563;28;20037;-41
2022/11/20 04:53:20;;;;;;;1.75;1.20;;;;;;;;;;4994957;28;20450;-43
2022/11/20 04:55:46;;;;;;;1.60;1.40;;;;;;;;;;5007175;28;20121;-43
2022/11/20 04:58:12;;;;;;;1.23;1.08;;;;;;;;;;4998756;28;20079;-44
2022/11/20 05:00:37;;;;;;;3.30;1.65;;;;;;;;;;4995620;28;20176;-43
2022/11/20 05:03:03;;;;;;;2.83;1.38;;;;;;;;;;4998770;28;20128;-43
2022/11/20 05:05:29;;;;;;;2.17;1.20;;;;;;;;;;5002963;28;20048;-46
2022/11/20 05:07:58;;;;;;;2.67;1.10;;;;;;;;;;4999411;28;20118;-47
2022/11/20 05:10:25;;;;;;;3.13;1.17;;;;;;;;;;5002801;28;20368;-49
2022/11/20 05:12:50;;;;;;;3.67;1.30;;;;;;;;;;5007087;28;20034;-43
2022/11/20 05:15:16;;;;;;;6.20;1.45;;;;;;;;;;5001971;28;20044;-45
2022/11/20 05:17:46;;;;;;;2.05;1.42;;;;;;;;;;4996931;28;20029;-45
2022/11/20 05:20:11;;;;;;;4.63;1.40;;;;;;;;;;5002836;28;20134;-51
2022/11/20 05:22:37;;;;;;;1.75;1.30;;;;;;;;;;5001203;28;20130;-46
2022/11/20 05:25:02;;;;;;;3.35;1.65;;;;;;;;;;5003478;28;20045;-45
2022/11/20 05:27:27;;;;;;;2.65;1.38;;;;;;;;;;5000686;28;20464;-43
2022/11/20 05:29:53;;;;;;;3.03;1.35;;;;;;;;;;4995896;28;20562;-42
2022/11/20 05:32:18;;;;;;;1.33;1.13;;;;;;;;;;5002784;28;20440;-44
2022/11/20 05:34:43;;;;;;;1.67;1.15;;;;;;;;;;4995684;28;20038;-44
2022/11/20 05:37:09;;;;;;;2.47;1.30;;;;;;;;;;5001894;28;20124;-44
2022/11/20 05:39:34;;;;;;;1.45;1.20;;;;;;;;;;5006689;28;20085;-45
2022/11/20 05:44:43;;;;;;;1.50;1.40;;;;;;;;;;5008298;28;20403;-44
2022/11/20 05:47:09;;;;;;;1.42;1.35;;;;;;;;;;5005268;28;20026;-43
2022/11/20 05:49:34;;;;;;;2.33;1.42;;;;;;;;;;5000336;28;20554;-48
2022/11/20 05:52:00;;;;;;;1.60;1.40;;;;;;;;;;5006609;28;20103;-43
2022/11/20 05:54:25;;;;;;;1.73;1.52;;;;;;;;;;5000337;28;20093;-43
2022/11/20 05:56:50;;;;;;;1.58;1.30;;;;;;;;;;5001174;28;20418;-46
2022/11/20 05:59:16;;;;;;;1.30;1.20;;;;;;;;;;5004933;28;20045;-43
2022/11/20 06:01:41;;;;;;;2.10;1.65;;;;;;;;;;4998006;28;20042;-46
2022/11/20 06:04:06;;;;;;;1.48;1.25;;;;;;;;;;4999446;28;20104;-51
2022/11/20 06:06:32;;;;;;;3.30;1.50;;;;;;;;;;4996958;28;20025;-46
2022/11/20 06:08:58;;;;;;;2.67;1.55;;;;;;;;;;5000412;28;20096;-43
2022/11/20 06:11:24;;;;;;;1.50;1.40;;;;;;;;;;5000884;28;20030;-43
2022/11/20 06:13:50;;;;;;;2.85;1.60;;;;;;;;;;5009257;28;20030;-44
2022/11/20 06:16:18;;;;;;;1.50;1.30;;;;;;;;;;5004581;28;20045;-43
2022/11/20 06:18:44;;;;;;;2.55;1.50;;;;;;;;;;4996079;28;20456;-43
2022/11/20 06:21:20;;;;;;;1.52;1.10;;;;;;;;;;5003404;28;20026;-45
2022/11/20 06:23:46;;;;;;;1.65;1.30;;;;;;;;;;5000521;28;20031;-43
2022/11/20 06:26:16;;;;;;;1.10;1.05;;;;;;;;;;5007680;28;20053;-49
2022/11/20 06:28:41;;;;;;;2.22;1.20;;;;;;;;;;4999784;28;20064;-44
2022/11/20 06:31:09;;;;;;;1.70;1.60;;;;;;;;;;5002905;28;20061;-49
2022/11/20 06:33:35;;;;;;;5.10;1.67;;;;;;;;;;5005270;28;20033;-43
2022/11/20 06:36:01;;;;;;;2.70;1.48;;;;;;;;;;4999636;28;20032;-45
2022/11/20 06:38:27;;;;;;;1.60;1.50;;;;;;;;;;5000883;28;20044;-46
2022/11/20 06:40:53;;;;;;;4.78;2.08;;;;;;;;;;5001328;28;20560;-42
2022/11/20 06:43:19;;;;;;;4.00;1.60;;;;;;;;;;5006365;28;20040;-44
2022/11/20 06:45:45;;;;;;;2.72;1.65;;;;;;;;;;5001688;28;20426;-44
2022/11/20 06:48:10;;;;;;;3.25;1.58;;;;;;;;;;5005417;28;20033;-43
2022/11/20 06:50:37;;;;;;;2.10;1.50;;;;;;;;;;5005284;28;21449;-43
2022/11/20 06:53:04;;;;;;;2.63;1.63;;;;;;;;;;4998095;28;20088;-43
2022/11/20 06:55:30;;;;;;;2.22;1.50;;;;;;;;;;5004226;28;20043;-46
2022/11/20 06:57:56;;;;;;;2.88;1.27;;;;;;;;;;4998652;28;20081;-43
2022/11/20 07:00:21;;;;;;;1.42;1.30;;;;;;;;;;4996537;28;20038;-42
2022/11/20 07:02:46;;;;;;;1.40;1.30;;;;;;;;;;4996864;28;20030;-43
2022/11/20 07:05:12;;;;;;;1.60;1.45;;;;;;;;;;5001168;28;20118;-44
2022/11/20 07:07:37;;;;;;;1.85;1.50;;;;;;;;;;5005584;28;20062;-43
2022/11/20 07:10:03;;;;;;;2.17;1.50;;;;;;;;;;5004672;28;20053;-43
2022/11/20 07:12:29;;;;;;;2.13;1.17;;;;;;;;;;5000411;28;20041;-45
2022/11/20 07:14:54;;;;;;;1.75;1.65;;;;;;;;;;4995170;28;20042;-46
2022/11/20 07:17:20;;;;;;;2.30;1.85;;;;;;;;;;5007598;28;20113;-48
2022/11/20 07:19:45;;;;;;;2.20;1.80;;;;;;;;;;5005943;28;20042;-43
2022/11/20 07:22:11;;;;;;;3.65;1.70;;;;;;;;;;5000395;28;20030;-44
2022/11/20 07:24:36;;;;;;;2.10;1.55;;;;;;;;;;5002016;28;20034;-44
2022/11/20 07:27:01;;;;;;;2.13;1.48;;;;;;;;;;5000141;28;20080;-45
2022/11/20 07:29:27;;;;;;;3.42;2.58;;;;;;;;;;5001892;28;20037;-45
2022/11/20 07:31:52;;;;;;;2.28;1.60;;;;;;;;;;5002905;28;20368;-43
2022/11/20 07:34:17;;;;;;;1.58;1.42;;;;;;;;;;4998208;28;20042;-50
2022/11/20 07:36:43;;;;;;;2.60;1.70;;;;;;;;;;5002550;28;20478;-46
2022/11/20 07:39:08;;;;;;;2.95;1.40;;;;;;;;;;5003673;28;20391;-43
2022/11/20 07:41:33;;;;;;;1.75;1.65;;;;;;;;;;5004429;28;20092;-49
2022/11/20 07:43:59;;;;;;;1.48;1.38;;;;;;;;;;5004337;28;20118;-44
2022/11/20 07:46:24;;;;;;;2.53;1.60;;;;;;;;;;5002532;28;20646;-48
2022/11/20 07:48:49;;;;;;;3.78;1.15;;;;;;;;;;5002562;28;20080;-44
2022/11/20 07:51:15;;;;;;;2.17;1.45;;;;;;;;;;4998789;28;20037;-43
2022/11/20 07:53:40;;;;;;;3.10;1.63;;;;;;;;;;5001188;28;20648;-44
2022/11/20 07:56:06;;;;;;;3.78;1.30;;;;;;;;;;5003797;28;20103;-43
2022/11/20 07:58:34;;;;;;;2.55;1.73;;;;;;;;;;5003847;28;20038;-43
2022/11/20 08:01:04;;;;;;;5.60;1.80;;;;;;;;;;5002415;28;20037;-45
2022/11/20 08:03:29;;;;;;;2.00;1.52;;;;;;;;;;4999747;28;20104;-47
2022/11/20 08:05:58;;;;;;;2.83;1.58;;;;;;;;;;4998265;28;20134;-42
2022/11/20 08:08:23;;;;;;;4.07;1.33;;;;;;;;;;5006888;28;20080;-43
2022/11/20 08:10:49;;;;;;;5.72;1.65;;;;;;;;;;4998155;28;20443;-46
2022/11/20 08:15:58;;;;;;;1.77;1.58;;;;;;;;;;4997641;28;20104;-46
2022/11/20 08:18:23;;;;;;;1.70;1.60;;;;;;;;;;4995908;28;20030;-44
2022/11/20 08:20:49;;;;;;;3.25;2.00;;;;;;;;;;5000896;28;20049;-45
2022/11/20 08:23:14;;;;;;;4.85;1.83;;;;;;;;;;4998677;28;20045;-43
2022/11/20 08:25:40;;;;;;;3.45;1.40;;;;;;;;;;4998861;28;20507;-44
2022/11/20 08:28:08;;;;;;;3.42;1.83;;;;;;;;;;4999039;28;20543;-46
2022/11/20 08:30:34;;;;;;;1.48;1.30;;;;;;;;;;5005006;28;20121;-44
2022/11/20 08:33:05;;;;;;;2.17;1.30;;;;;;;;;;5002481;28;20410;-49
2022/11/20 08:35:37;;;;;;;1.63;1.50;;;;;;;;;;4996952;28;20095;-43
2022/11/20 08:38:04;;;;;;;4.18;1.88;;;;;;;;;;5003588;28;20109;-44
2022/11/20 08:40:30;;;;;;;2.30;1.52;;;;;;;;;;5006265;28;20065;-43
2022/11/20 08:42:56;;;;;;;2.55;1.40;;;;;;;;;;4991508;28;20053;-47
2022/11/20 08:45:22;;;;;;;1.73;1.30;;;;;;;;;;5003665;28;20046;-47
2022/11/20 08:47:47;;;;;;;2.28;1.40;;;;;;;;;;5001702;28;20058;-45
2022/11/20 08:50:14;;;;;;;1.40;1.30;;;;;;;;;;4996838;28;20062;-52
2022/11/20 08:52:39;;;;;;;2.15;1.27;;;;;;;;;;4998691;28;20037;-47
2022/11/20 08:55:06;;;;;;;2.22;1.08;;;;;;;;;;4996412;28;20038;-44
2022/11/20 08:57:35;;;;;;;1.58;1.45;;;;;;;;;;5000670;28;20038;-48
2022/11/20 09:00:01;;;;;;;1.85;1.52;;;;;;;;;;4997304;28;20492;-45
2022/11/20 09:02:26;;;;;;;3.38;1.70;;;;;;;;;;4996910;28;20042;-48
2022/11/20 09:04:53;;;;;;;2.53;1.58;;;;;;;;;;4995957;28;20045;-48
2022/11/20 09:07:18;;;;;;;3.75;1.35;;;;;;;;;;5013963;28;20026;-46
2022/11/20 09:09:44;;;;;;;3.92;1.45;;;;;;;;;;4999246;28;20513;-52
2022/11/20 09:12:09;;;;;;;2.22;1.60;;;;;;;;;;5001050;28;20025;-48
2022/11/20 09:14:34;;;;;;;1.88;1.20;;;;;;;;;;5001243;28;20045;-47
2022/11/20 09:17:00;;;;;;;1.42;1.33;;;;;;;;;;5006907;28;20034;-42
2022/11/20 09:19:25;;;;;;;2.22;1.77;;;;;;;;;;4995355;28;20095;-45
2022/11/20 09:21:51;;;;;;;2.05;1.30;;;;;;;;;;4995229;28;20033;-51
2022/11/20 09:24:17;;;;;;;3.63;1.60;;;;;;;;;;4994497;28;20041;-49
2022/11/20 09:26:42;;;;;;;2.67;1.23;;;;;;;;;;4996015;28;20113;-43
2022/11/20 09:29:08;;;;;;;1.23;1.20;;;;;;;;;;5003798;28;20125;-43
2022/11/20 09:31:33;;;;;;;1.55;1.40;;;;;;;;;;4999506;28;20116;-44
2022/11/20 09:33:58;;;;;;;2.33;1.40;;;;;;;;;;5005613;28;20116;-48
2022/11/20 09:36:24;;;;;;;1.70;1.50;;;;;;;;;;4997477;28;20120;-48
2022/11/20 09:38:49;;;;;;;3.67;1.50;;;;;;;;;;5001294;28;20053;-51
2022/11/20 09:41:45;;;;;;;1.60;1.50;;;;;;;;;;5000108;28;20120;-48
2022/11/20 09:44:52;;;;;;;5.90;1.48;;;;;;;;;;5000949;28;20038;-47
2022/11/20 09:47:51;;;;;;;1.83;1.45;;;;;;;;;;5014355;28;20441;-44
2022/11/20 09:50:47;;;;;;;5.05;1.88;;;;;;;;;;4996218;28;20046;-47
2022/11/20 09:54:14;;;;;;;4.63;1.50;;;;;;;;;;4998525;28;20045;-49
2022/11/20 09:56:46;;;;;;;2.35;1.70;;;;;;;;;;5007847;28;20057;-46
2022/11/20 09:59:22;;;;;;;3.72;1.65;;;;;;;;;;5006187;28;20499;-43
2022/11/20 10:01:47;;;;;;;2.17;1.38;;;;;;;;;;4996129;28;20034;-46
2022/11/20 10:04:17;;;;;;;2.90;1.63;;;;;;;;;;4998063;28;20041;-45
2022/11/20 10:07:08;;;;;;;4.65;1.98;;;;;;;;;;4996152;28;20395;-49
2022/11/20 10:09:42;;;;;;;3.60;1.40;;;;;;;;;;4995453;28;20101;-46
2022/11/20 10:12:46;;;;;;;1.83;1.30;;;;;;;;;;5005151;28;20156;-43
2022/11/20 10:15:49;;;;;;;2.40;1.40;;;;;;;;;;4964868;28;20530;-49
2022/11/20 10:18:30;;;;;;;1.50;1.20;;;;;;;;;;4959901;28;20085;-47
2022/11/20 10:20:59;;;;;;;1.65;1.00;;;;;;;;;;4960358;28;20476;-45
2022/11/20 10:23:33;;;;;;;2.25;1.10;;;;;;;;;;4964149;28;20081;-44
2022/11/20 10:26:12;;;;;;;2.45;1.20;;;;;;;;;;4962778;28;20575;-46
2022/11/20 10:28:48;;;;;;;3.33;1.27;;;;;;;;;;4963377;28;20119;-43
2022/11/20 10:31:26;;;;;;;1.60;1.10;;;;;;;;;;4972248;28;20047;-44
2022/11/20 10:33:54;;;;;;;3.35;1.60;;;;;;;;;;4985949;28;20039;-43
2022/11/20 10:36:28;;;;;;;2.20;1.20;;;;;;;;;;4980648;28;20042;-44
2022/11/20 10:39:00;;;;;;;1.05;0.85;;;;;;;;;;4979688;28;20053;-43
2022/11/20 10:41:37;;;;;;;2.70;1.08;;;;;;;;;;4980756;28;20105;-44
2022/11/20 10:44:09;;;;;;;2.45;1.40;;;;;;;;;;4977745;28;20057;-43
2022/11/20 10:46:38;;;;;;;;;;;;;;;;;;4989905;28;20052;-46
2022/11/20 10:49:11;;;;;;;1.70;1.23;;;;;;;;;;4979756;28;20028;-45
2022/11/20 10:51:58;;;;;;;5.65;1.63;;;;;;;;;;4983704;28;20034;-43
2022/11/20 10:54:38;;;;;;;3.08;1.58;;;;;;;;;;5001600;28;20502;-45
2022/11/20 10:57:22;;;;;;;1.65;1.45;;;;;;;;;;4996972;28;20038;-45
2022/11/20 11:00:10;;;;;;;7.32;2.05;;;;;;;;;;5003730;28;20042;-44
2022/11/20 11:02:46;;;;;;;7.85;1.75;;;;;;;;;;4999302;28;20044;-45
2022/11/20 11:05:35;;;;;;;2.10;1.67;;;;;;;;;;5003484;28;20121;-43
2022/11/20 11:08:00;;;;;;;2.28;1.85;;;;;;;;;;5002678;28;20076;-46
2022/11/20 12:05:21;;;;;;;7.10;2.38;;;;;;;;;;4870697;23;24752;-39
2022/11/20 12:07:48;;;;;;;3.47;1.42;;;;;;;;;;4960518;28;20038;-49
2022/11/20 12:10:22;;;;;;;1.50;1.13;;;;;;;;;;4964935;28;20414;-49
2022/11/20 12:13:01;;;;;;;1.33;1.08;;;;;;;;;;4963185;28;20060;-48
2022/11/20 12:15:30;;;;;;;3.65;1.20;;;;;;;;;;4962124;28;20047;-50
2022/11/20 12:17:56;;;;;;;1.13;1.00;;;;;;;;;;4960868;28;20464;-52
2022/11/20 12:20:28;;;;;;;3.25;1.40;;;;;;;;;;4962017;28;20129;-50
2022/11/20 12:23:14;;;;;;;1.23;1.13;;;;;;;;;;4965430;28;20038;-47
2022/11/20 12:25:47;;;;;;;4.30;1.50;;;;;;;;;;4964035;28;20043;-48
2022/11/20 12:28:26;;;;;;;3.42;1.27;;;;;;;;;;4962802;28;20031;-51
2022/11/20 12:31:13;;;;;;;1.98;1.13;;;;;;;;;;4964023;28;20419;-49
2022/11/20 12:34:02;;;;;;;0.90;0.90;;;;;;;;;;4966217;28;20031;-55
2022/11/20 12:36:39;;;;;;;2.97;1.10;;;;;;;;;;4967700;28;20038;-47
2022/11/20 12:39:09;;;;;;;1.65;1.08;;;;;;;;;;4961190;28;20446;-54
2022/11/20 12:45:11;;;;;;;3.83;1.42;;;;;;;;;;4964041;28;21049;-49
2022/11/20 12:48:26;;;;;;;3.58;1.27;;;;;;;;;;4962667;28;20109;-52
2022/11/20 12:51:14;;;;;;;2.17;1.05;;;;;;;;;;4964274;28;20049;-52
2022/11/20 12:54:02;;;;;;;3.22;1.13;;;;;;;;;;4963553;28;20026;-48
2022/11/20 12:56:56;;;;;;;2.60;1.33;;;;;;;;;;4965838;28;20081;-54
2022/11/20 12:59:22;;;;;;;1.17;1.08;;;;;;;;;;4968409;28;20104;-51
2022/11/20 13:02:14;;;;;;;3.13;1.55;;;;;;;;;;4959903;28;20457;-54
2022/11/20 13:05:03;;;;;;;1.10;1.00;;;;;;;;;;4962184;28;20039;-50
2022/11/20 13:07:30;;;;;;;2.55;1.27;;;;;;;;;;4965175;28;20054;-59
2022/11/20 13:09:57;;;;;;;1.42;1.33;;;;;;;;;;4996038;28;20485;-51
2022/11/20 13:12:47;;;;;;;1.02;1.02;;;;;;;;;;4998910;28;20034;-50
2022/11/20 13:15:37;;;;;;;6.13;2.13;;;;;;;;;;4999291;28;23140;-47
2022/11/20 13:18:08;;;;;;;5.47;2.20;;;;;;;;;;5000790;28;20509;-47
2022/11/20 13:20:34;;;;;;;1.17;1.08;;;;;;;;;;4998666;28;20068;-48
2022/11/20 13:23:00;;;;;;;2.40;1.42;;;;;;;;;;4985228;28;20030;-50
2022/11/20 13:25:34;;;;;;;4.43;2.50;;;;;;;;;;5003512;28;20678;-49
2022/11/20 13:28:03;;;;;;;2.78;1.60;;;;;;;;;;5003473;28;20505;-49
2022/11/20 13:30:30;;;;;;;2.85;2.30;;;;;;;;;;5002528;28;20044;-51
2022/11/20 13:33:03;;;;;;;1.65;1.15;;;;;;;;;;5003278;28;20137;-46
2022/11/20 13:35:28;;;;;;;2.83;1.52;;;;;;;;;;5003524;28;20128;-51
2022/11/20 13:38:22;;;;;;;3.78;1.50;;;;;;;;;;5006420;28;21140;-46
2022/11/20 13:40:56;;;;;;;3.67;1.70;;;;;;;;;;4990158;28;20099;-46
2022/11/20 13:43:22;;;;;;;2.22;1.40;;;;;;;;;;5005291;28;20557;-46
2022/11/20 13:45:59;;;;;;;2.38;1.73;;;;;;;;;;5008794;28;20042;-47
2022/11/20 13:48:30;;;;;;;2.90;1.65;;;;;;;;;;5005276;28;20033;-46
2022/11/20 13:51:12;;;;;;;4.65;1.63;;;;;;;;;;5001836;28;20052;-46
2022/11/20 13:53:56;;;;;;;1.70;1.40;;;;;;;;;;5003715;28;20241;-47
2022/11/20 13:56:39;;;;;;;1.75;1.48;;;;;;;;;;5004353;28;20044;-49
2022/11/20 13:59:11;;;;;;;1.52;1.35;;;;;;;;;;4998236;28;20041;-45
2022/11/20 14:01:37;;;;;;;2.13;1.50;;;;;;;;;;5004252;28;20034;-47
2022/11/20 14:04:13;;;;;;;1.98;1.35;;;;;;;;;;5006742;28;20100;-46
2022/11/20 14:06:43;;;;;;;2.15;1.60;;;;;;;;;;5006308;28;20117;-45
2022/11/20 14:09:27;;;;;;;3.25;1.73;;;;;;;;;;4999942;28;20084;-47
2022/11/20 14:11:53;;;;;;;1.60;1.50;;;;;;;;;;5007097;28;20032;-47
2022/11/20 14:14:21;;;;;;;2.05;1.02;;;;;;;;;;5005313;28;20034;-46
2022/11/20 14:16:48;;;;;;;1.98;1.75;;;;;;;;;;5009079;28;20429;-45
2022/11/20 14:19:19;;;;;;;1.63;1.52;;;;;;;;;;5004259;28;20454;-47
2022/11/20 14:21:49;;;;;;;6.40;2.67;;;;;;;;;;5003656;28;20149;-44
2022/11/20 14:24:20;;;;;;;2.67;1.70;;;;;;;;;;5004385;28;20053;-49
2022/11/20 14:26:46;;;;;;;2.30;2.10;;;;;;;;;;5014448;28;20552;-50
2022/11/20 14:29:16;;;;;;;3.90;1.77;;;;;;;;;;5003079;28;20077;-48
2022/11/20 14:31:43;;;;;;;2.67;1.77;;;;;;;;;;5004075;28;20088;-46
2022/11/20 14:34:21;;;;;;;1.75;1.63;;;;;;;;;;5003077;28;20053;-46
2022/11/20 14:36:47;;;;;;;1.52;1.25;;;;;;;;;;5008214;28;20029;-45
2022/11/20 14:39:25;;;;;;;3.30;0.98;;;;;;;;;;5011543;28;20065;-46
2022/11/20 14:41:52;;;;;;;1.67;0.95;;;;;;;;;;5005879;28;20399;-45
2022/11/20 14:44:19;;;;;;;2.03;1.30;;;;;;;;;;5003211;28;20042;-50
2022/11/20 14:46:45;;;;;;;1.10;1.00;;;;;;;;;;5003086;28;20505;-44
2022/11/20 14:49:11;;;;;;;5.20;1.55;;;;;;;;;;5001575;28;20046;-48
2022/11/20 14:51:41;;;;;;;2.70;1.83;;;;;;;;;;5004497;28;20033;-45
2022/11/20 14:54:15;;;;;;;3.17;1.77;;;;;;;;;;5007557;28;20053;-44
2022/11/20 14:56:41;;;;;;;2.85;1.83;;;;;;;;;;5003617;28;20038;-47
2022/11/20 14:59:08;;;;;;;2.20;1.60;;;;;;;;;;5005310;28;20052;-50
2022/11/20 15:01:34;;;;;;;2.97;2.20;;;;;;;;;;5004342;28;20030;-48
2022/11/20 15:04:10;;;;;;;2.75;1.73;;;;;;;;;;5005470;28;20625;-46
2022/11/20 15:06:37;;;;;;;3.30;1.42;;;;;;;;;;5005013;28;20068;-48
2022/11/20 15:09:04;;;;;;;3.13;1.45;;;;;;;;;;5007688;28;20045;-45
2022/11/20 15:11:35;;;;;;;3.70;2.30;;;;;;;;;;5003563;28;20482;-46
2022/11/20 15:14:04;;;;;;;6.50;2.28;;;;;;;;;;5003784;28;20057;-46
2022/11/20 15:16:30;;;;;;;28.08;15.98;;;;;;;;;;5005102;28;20025;-45
2022/11/20 15:18:56;;;;;;;10.95;6.70;;;;;;;;;;5006780;28;20041;-51
2022/11/20 15:21:21;;;;;;;2.65;2.05;;;;;;;;;;5003739;28;20029;-46
2022/11/20 15:23:47;;;;;;;2.78;1.95;;;;;;;;;;5009219;28;20021;-46
2022/11/20 15:26:18;;;;;;;6.70;5.40;;;;;;;;;;5006747;28;20080;-47
2022/11/20 15:28:44;;;;;;;10.02;4.68;;;;;;;;;;5011914;28;20026;-45
2022/11/20 15:31:15;;;;;;;3.40;3.10;;;;;;;;;;5007586;28;20071;-44
2022/11/20 15:33:41;;;;;;;3.60;1.90;;;;;;;;;;5006190;28;20034;-45
2022/11/20 15:36:06;;;;;;;3.13;2.60;;;;;;;;;;5007770;28;20072;-45
2022/11/20 15:38:32;;;;;;;3.65;2.88;;;;;;;;;;4992717;28;20481;-45
2022/11/20 15:40:57;;;;;;;4.75;3.15;;;;;;;;;;5002998;28;20053;-45
2022/11/20 15:43:23;;;;;;;8.88;4.97;;;;;;;;;;5003141;28;20072;-49
2022/11/20 15:45:54;;;;;;;9.27;4.93;;;;;;;;;;5003113;28;20407;-45
2022/11/20 15:48:24;;;;;;;18.33;8.23;;;;;;;;;;5009884;28;20505;-46
2022/11/20 15:50:56;;;;;;;9.85;6.05;;;;;;;;;;5002323;28;20060;-44
2022/11/20 15:53:22;;;;;;;13.18;7.20;;;;;;;;;;5003562;28;20092;-47
2022/11/20 15:55:47;;;;;;;11.65;6.25;;;;;;;;;;5005732;28;20046;-44
2022/11/20 15:58:13;;;;;;;40.58;21.40;;;;;;;;;;5007582;28;20110;-46
2022/11/20 16:00:38;;;;;;;4.25;3.10;;;;;;;;;;5006154;28;20038;-46
2022/11/20 16:03:04;;;;;;;4.97;3.50;;;;;;;;;;5005606;28;20038;-44